CheckWX is a tool to help pilots better visualize weather data.  It is not intended as a substitute for an official pre-flight weather briefing.

12:23:04 UTC

1A9 METAR
Prattville - Grouby Field Airport
Prattville, Alabama, USA
Current

8 mins ago

K1A9 181215Z AUTO 34008KT 10SM -RA SCT019 OVC050 10/06 A3013 RMK AO2 T00980057
Observed
Feb-18 @ 12:15 UTC
Wind
  • 340° at 8 KTS
Visibility
10 SM
Flight Rules
VFR
Conditions
Light Rain
Cloud Levels
  • Scattered at 1,900' AGL
  • Overcast at 5,000' AGL
Temperature
10°C / 50°F
Dewpoint
C / 43°F
Humidity
76%
Altimeter
30.13" Hg
Pressure
1020.32 hPa
Previous

28 mins ago

K1A9 181155Z AUTO 34006KT 10SM BKN019 OVC050 10/07 A3011 RMK AO2 70003 T01000069 10143 20100
Observed
Feb-18 @ 11:55 UTC
Wind
  • 340° at 6 KTS
Visibility
10 SM
Flight Rules
MVFR
Cloud Levels
  • Broken at 1,900' AGL
  • Overcast at 5,000' AGL
Temperature
10°C / 50°F
Dewpoint
C / 45°F
Humidity
82%
Altimeter
30.11" Hg
Pressure
1019.62 hPa
Previous

48 mins ago

K1A9 181135Z AUTO 33007KT 10SM OVC019 10/07 A3010 RMK AO2 T01040074
Observed
Feb-18 @ 11:35 UTC
Wind
  • 330° at 7 KTS
Visibility
10 SM
Flight Rules
MVFR
Cloud Levels
  • Overcast at 1,900' AGL
Temperature
10°C / 50°F
Dewpoint
C / 45°F
Humidity
82%
Altimeter
30.1" Hg
Pressure
1019.32 hPa